Time,TemperatureF,DewpointF,PressureIn,WindDirection,WindDirectionDegrees,WindSpeedMPH,WindSpeedGustMPH,Humidity,HourlyPrecipIn,Conditions,Clouds,dailyrainin,SoftwareType,DateUTC
2013-01-19 00:01:00,29.1,6.6,29.93,SSE,149,3.5,0.0,38,0.00,CLR,,0.00,WeatherDisplay:10.37,2013-01-19 05:01:00,
2013-01-19 00:03:00,29.3,6.8,29.93,ESE,121,3.5,3.5,38,0.00,CLR,,0.00,WeatherDisplay:10.37,2013-01-19 05:03:00,
2013-01-19 00:08:00,29.5,7.0,29.93,SE,130,3.5,0.0,38,0.00,CLR,,0.00,WeatherDisplay:10.37,2013-01-19 05:08:00,
2013-01-19 00:13:00,29.3,6.8,29.90,SE,138,3.6,0.0,38,0.00,CLR,,0.00,WeatherDisplay:10.37,2013-01-19 05:13:00,
2013-01-19 00:18:00,29.5,7.0,29.90,SE,134,2.7,0.0,38,0.00,CLR,,0.00,WeatherDisplay:10.37,2013-01-19 05:18:00,
2013-01-19 00:23:00,29.5,7.0,29.90,SSE,161,4.6,4.6,38,0.00,CLR,,0.00,WeatherDisplay:10.37,2013-01-19 05:23:00,
2013-01-19 00:28:00,29.3,6.8,29.90,SW,226,3.5,3.5,38,0.00,CLR,,0.00,WeatherDisplay:10.37,2013-01-19 05:28:00,
2013-01-19 00:33:00,30.0,7.4,29.90,SE,136,3.1,0.0,38,0.00,CLR,,0.00,WeatherDisplay:10.37,2013-01-19 05:33:00,
2013-01-19 00:38:00,29.8,7.3,29.90,SE,146,2.3,0.0,38,0.00,CLR,,0.00,WeatherDisplay:10.37,2013-01-19 05:38:00,
2013-01-19 00:43:00,29.8,7.3,29.90,West,277,4.6,4.6,38,0.00,CLR,,0.00,WeatherDisplay:10.37,2013-01-19 05:43:00,
2013-01-19 00:48:00,29.8,7.3,29.90,SW,219,3.1,3.1,38,0.00,CLR,,0.00,WeatherDisplay:10.37,2013-01-19 05:48:00,
2013-01-19 00:53:00,30.0,7.4,29.90,ESE,115,3.5,3.5,38,0.00,CLR,,0.00,WeatherDisplay:10.37,2013-01-19 05:53:00,
2013-01-19 00:58:00,29.7,7.1,29.87,SE,126,2.3,2.3,38,0.00,CLR,,0.00,WeatherDisplay:10.37,2013-01-19 05:58:00,
2013-01-19 01:03:00,29.7,7.1,29.87,SE,127,3.1,3.1,38,0.00,CLR,,0.00,WeatherDisplay:10.37,2013-01-19 06:03:00,
2013-01-19 01:08:00,29.5,7.0,29.87,SE,142,2.3,0.0,38,0.00,CLR,,0.00,WeatherDisplay:10.37,2013-01-19 06:08:00,
2013-01-19 01:13:00,29.5,7.0,29.87,WSW,244,0.0,0.0,38,0.00,CLR,,0.00,WeatherDisplay:10.37,2013-01-19 06:13:00,
2013-01-19 01:18:00,29.5,7.0,29.90,ESE,116,3.5,3.5,38,0.00,CLR,,0.00,WeatherDisplay:10.37,2013-01-19 06:18:00,
2013-01-19 01:23:00,29.3,6.8,29.90,SSE,153,3.5,0.0,38,0.00,CLR,,0.00,WeatherDisplay:10.37,2013-01-19 06:23:00,
2013-01-19 01:28:00,29.1,6.6,29.90,ESE,115,2.3,0.0,38,0.00,CLR,,0.00,WeatherDisplay:10.37,2013-01-19 06:28:00,
2013-01-19 01:33:00,29.3,6.8,29.87,South,173,3.5,3.5,38,0.00,CLR,,0.00,WeatherDisplay:10.37,2013-01-19 06:33:00,
2013-01-19 01:38:00,29.8,7.3,29.87,South,184,3.5,3.5,38,0.00,CLR,,0.00,WeatherDisplay:10.37,2013-01-19 06:38:00,
2013-01-19 01:43:00,30.2,7.6,29.87,SSE,150,3.5,3.5,38,0.00,CLR,,0.00,WeatherDisplay:10.37,2013-01-19 06:43:00,
2013-01-19 01:48:00,30.9,8.2,29.87,South,176,8.1,8.1,38,0.00,CLR,,0.00,WeatherDisplay:10.37,2013-01-19 06:48:00,
2013-01-19 01:53:00,31.5,8.7,29.87,SE,144,2.3,0.0,38,0.00,CLR,,0.00,WeatherDisplay:10.37,2013-01-19 06:53:00,
2013-01-19 01:58:00,30.9,8.2,29.87,SE,130,2.7,0.0,38,0.00,CLR,,0.00,WeatherDisplay:10.37,2013-01-19 06:58:00,
2013-01-19 02:03:00,31.5,8.7,29.87,SSE,152,2.7,0.0,38,0.00,CLR,,0.00,WeatherDisplay:10.37,2013-01-19 07:03:00,
2013-01-19 02:08:00,31.8,9.1,29.87,SSE,147,3.5,0.0,38,0.00,CLR,,0.00,WeatherDisplay:10.37,2013-01-19 07:08:00,
2013-01-19 02:13:00,32.2,9.4,29.87,WNW,293,2.3,2.3,38,0.00,CLR,,0.00,WeatherDisplay:10.37,2013-01-19 07:13:00,
2013-01-19 02:18:00,32.5,9.7,29.87,East,97,3.5,3.5,38,0.00,CLR,,0.00,WeatherDisplay:10.37,2013-01-19 07:18:00,
2013-01-19 02:23:00,32.7,9.9,29.87,SE,132,3.5,0.0,38,0.00,CLR,,0.00,WeatherDisplay:10.37,2013-01-19 07:23:00,
2013-01-19 02:28:00,32.4,9.5,29.87,SW,221,2.3,2.7,38,0.00,CLR,,0.00,WeatherDisplay:10.37,2013-01-19 07:28:00,
2013-01-19 02:33:00,32.4,9.5,29.87,SE,141,3.6,3.6,38,0.00,CLR,,0.00,WeatherDisplay:10.37,2013-01-19 07:33:00,
2013-01-19 02:38:00,32.5,9.7,29.87,SW,216,0.0,0.0,38,0.00,CLR,,0.00,WeatherDisplay:10.37,2013-01-19 07:38:00,
2013-01-19 02:43:00,32.4,9.5,29.84,South,169,2.3,0.0,38,0.00,CLR,,0.00,WeatherDisplay:10.37,2013-01-19 07:43:00,
2013-01-19 02:48:00,32.4,9.5,29.84,SSW,207,2.2,0.0,38,0.00,CLR,,0.00,WeatherDisplay:10.37,2013-01-19 07:48:00,
2013-01-19 02:53:00,32.0,9.2,29.84,South,183,2.3,0.0,38,0.00,CLR,,0.00,WeatherDisplay:10.37,2013-01-19 07:53:00,
2013-01-19 02:58:00,32.0,9.2,29.84,SSE,160,0.0,2.2,38,0.00,CLR,,0.00,WeatherDisplay:10.37,2013-01-19 07:58:00,
2013-01-19 03:03:00,32.2,9.4,29.84,SSE,154,0.0,0.0,38,0.00,CLR,,0.00,WeatherDisplay:10.37,2013-01-19 08:03:00,
2013-01-19 03:08:00,31.8,9.1,29.84,West,265,2.3,0.0,38,0.00,CLR,,0.00,WeatherDisplay:10.37,2013-01-19 08:08:00,
2013-01-19 03:13:00,32.2,9.4,29.84,SW,215,2.3,0.0,38,0.00,CLR,,0.00,WeatherDisplay:10.37,2013-01-19 08:13:00,
2013-01-19 03:18:00,31.3,8.6,29.84,SW,216,2.3,2.3,38,0.00,CLR,,0.00,WeatherDisplay:10.37,2013-01-19 08:18:00,
2013-01-19 03:23:00,31.5,8.7,29.84,SSW,202,2.3,0.0,38,0.00,CLR,,0.00,WeatherDisplay:10.37,2013-01-19 08:23:00,
2013-01-19 03:28:00,31.5,8.7,29.84,SE,126,0.0,0.0,38,0.00,CLR,,0.00,WeatherDisplay:10.37,2013-01-19 08:28:00,
2013-01-19 03:34:00,30.6,7.9,29.84,SE,128,0.0,0.0,38,0.00,CLR,,0.00,WeatherDisplay:10.37,2013-01-19 08:34:00,
2013-01-19 03:39:00,30.4,7.8,29.84,SE,128,2.3,0.0,38,0.00,CLR,,0.00,WeatherDisplay:10.37,2013-01-19 08:39:00,
2013-01-19 03:44:00,30.7,8.1,29.81,SW,216,0.0,0.0,38,0.00,CLR,,0.00,WeatherDisplay:10.37,2013-01-19 08:44:00,
2013-01-19 03:49:00,30.0,7.4,29.81,SE,146,0.0,0.0,38,0.00,CLR,,0.00,WeatherDisplay:10.37,2013-01-19 08:49:00,
2013-01-19 03:54:00,30.4,7.8,29.81,SE,130,2.3,0.0,38,0.00,CLR,,0.00,WeatherDisplay:10.37,2013-01-19 08:54:00,
2013-01-19 03:59:00,30.2,7.6,29.81,South,182,0.0,0.0,38,0.00,CLR,,0.00,WeatherDisplay:10.37,2013-01-19 08:59:00,
2013-01-19 04:04:00,30.2,7.6,29.81,ESE,120,3.5,3.5,38,0.00,CLR,,0.00,WeatherDisplay:10.37,2013-01-19 09:04:00,
2013-01-19 04:09:00,30.7,8.1,29.81,SE,126,3.5,3.5,38,0.00,CLR,,0.00,WeatherDisplay:10.37,2013-01-19 09:09:00,
2013-01-19 04:14:00,30.9,8.2,29.81,WSW,239,3.5,3.5,38,0.00,CLR,,0.00,WeatherDisplay:10.37,2013-01-19 09:14:00,
2013-01-19 04:19:00,30.7,8.1,29.81,South,184,2.3,0.0,38,0.00,CLR,,0.00,WeatherDisplay:10.37,2013-01-19 09:19:00,
2013-01-19 04:24:00,30.9,8.2,29.81,South,183,0.0,0.0,38,0.00,CLR,,0.00,WeatherDisplay:10.37,2013-01-19 09:24:00,
2013-01-19 04:29:00,30.7,8.1,29.81,SE,136,2.3,0.0,38,0.00,CLR,,0.00,WeatherDisplay:10.37,2013-01-19 09:29:00,
2013-01-19 04:34:00,30.4,7.8,29.81,West,259,2.3,0.0,38,0.00,CLR,,0.00,WeatherDisplay:10.37,2013-01-19 09:34:00,
2013-01-19 04:39:00,30.6,7.9,29.81,SE,128,3.5,0.0,38,0.00,CLR,,0.00,WeatherDisplay:10.37,2013-01-19 09:39:00,
2013-01-19 04:44:00,30.2,7.6,29.81,SSW,201,2.7,0.0,38,0.00,CLR,,0.00,WeatherDisplay:10.37,2013-01-19 09:44:00,
2013-01-19 04:49:00,30.4,7.8,29.81,SE,133,3.5,0.0,38,0.00,CLR,,0.00,WeatherDisplay:10.37,2013-01-19 09:49:00,
2013-01-19 04:54:00,30.2,7.6,29.81,SE,135,3.5,0.0,38,0.00,CLR,,0.00,WeatherDisplay:10.37,2013-01-19 09:54:00,
2013-01-19 04:59:00,30.2,7.6,29.81,South,191,3.5,3.5,38,0.00,CLR,,0.00,WeatherDisplay:10.37,2013-01-19 09:59:00,
2013-01-19 05:04:00,30.2,7.6,29.81,South,179,0.0,0.0,38,0.00,CLR,,0.00,WeatherDisplay:10.37,2013-01-19 10:04:00,
2013-01-19 05:09:00,30.7,8.1,29.81,SE,141,2.3,0.0,38,0.00,CLR,,0.00,WeatherDisplay:10.37,2013-01-19 10:09:00,
2013-01-19 05:14:00,30.6,7.9,29.81,SE,141,2.7,0.0,38,0.00,CLR,,0.00,WeatherDisplay:10.37,2013-01-19 10:14:00,
2013-01-19 05:19:00,30.7,8.1,29.81,SSE,155,0.0,0.0,38,0.00,CLR,,0.00,WeatherDisplay:10.37,2013-01-19 10:19:00,
2013-01-19 05:24:00,30.6,7.9,29.81,ESE,118,0.0,0.0,38,0.00,CLR,,0.00,WeatherDisplay:10.37,2013-01-19 10:24:00,
2013-01-19 05:29:00,31.1,8.4,29.78,SE,140,3.5,3.5,38,0.00,CLR,,0.00,WeatherDisplay:10.37,2013-01-19 10:29:00,
2013-01-19 05:34:00,31.1,8.4,29.78,SSE,149,3.6,0.0,38,0.00,CLR,,0.00,WeatherDisplay:10.37,2013-01-19 10:34:00,
2013-01-19 05:39:00,31.1,8.4,29.78,West,266,0.0,0.0,38,0.00,CLR,,0.00,WeatherDisplay:10.37,2013-01-19 10:39:00,
2013-01-19 05:44:00,31.1,8.4,29.78,WSW,255,0.0,0.0,38,0.00,CLR,,0.00,WeatherDisplay:10.37,2013-01-19 10:44:00,
2013-01-19 05:49:00,31.3,8.6,29.78,SSW,207,4.6,4.6,38,0.00,CLR,,0.00,WeatherDisplay:10.37,2013-01-19 10:49:00,
2013-01-19 05:54:00,31.5,8.7,29.78,SW,225,0.0,0.0,38,0.00,CLR,,0.00,WeatherDisplay:10.37,2013-01-19 10:54:00,
2013-01-19 05:59:00,31.3,8.6,29.81,SW,235,2.3,0.0,38,0.00,CLR,,0.00,WeatherDisplay:10.37,2013-01-19 10:59:00,
2013-01-19 06:04:00,31.1,8.4,29.81,SW,233,2.3,0.0,38,0.00,CLR,,0.00,WeatherDisplay:10.37,2013-01-19 11:04:00,
2013-01-19 06:09:00,31.1,8.4,29.81,SE,136,3.5,0.0,38,0.00,CLR,,0.00,WeatherDisplay:10.37,2013-01-19 11:09:00,
2013-01-19 07:47:00,33.4,10.5,29.84,ESE,114,3.5,0.0,38,0.00,CLR,,0.00,WeatherDisplay:10.37,2013-01-19 12:47:00,
2013-01-19 07:48:00,33.4,10.5,29.84,ESE,110,3.5,3.5,38,0.00,CLR,,0.00,WeatherDisplay:10.37,2013-01-19 12:48:00,
2013-01-19 07:53:00,33.4,10.5,29.84,ESE,123,3.5,3.5,38,0.00,CLR,,0.00,WeatherDisplay:10.37,2013-01-19 12:53:00,
2013-01-19 07:58:00,33.6,10.7,29.84,SSW,197,2.3,0.0,38,0.00,CLR,,0.00,WeatherDisplay:10.37,2013-01-19 12:58:00,
2013-01-19 08:03:00,34.5,10.9,29.84,SW,218,3.5,3.5,37,0.00,CLR,,0.00,WeatherDisplay:10.37,2013-01-19 13:03:00,
2013-01-19 08:08:00,34.7,11.0,29.84,NNE,19,0.0,0.0,37,0.00,CLR,,0.00,WeatherDisplay:10.37,2013-01-19 13:08:00,
2013-01-19 08:13:00,34.7,11.0,29.84,South,177,4.0,4.0,37,0.00,CLR,,0.00,WeatherDisplay:10.37,2013-01-19 13:13:00,
2013-01-19 08:18:00,36.1,12.3,29.84,ESE,110,3.5,3.5,37,0.00,CLR,,0.00,WeatherDisplay:10.37,2013-01-19 13:18:00,
2013-01-19 08:23:00,37.9,13.3,29.84,SE,145,2.3,0.0,36,0.00,CLR,,0.00,WeatherDisplay:10.37,2013-01-19 13:23:00,
2013-01-19 08:28:00,41.9,16.9,29.84,SSE,149,4.6,4.6,36,0.00,CLR,,0.00,WeatherDisplay:10.37,2013-01-19 13:28:00,
2013-01-19 08:34:00,45.1,19.1,29.84,SSE,156,3.5,3.5,35,0.00,CLR,,0.00,WeatherDisplay:10.37,2013-01-19 13:34:00,
2013-01-19 08:39:00,45.5,19.4,29.84,ESE,123,2.3,0.0,35,0.00,CLR,,0.00,WeatherDisplay:10.37,2013-01-19 13:39:00,
2013-01-19 08:44:00,41.2,16.2,29.84,ESE,115,2.7,0.0,36,0.00,CLR,,0.00,WeatherDisplay:10.37,2013-01-19 13:44:00,
2013-01-19 08:49:00,38.5,13.8,29.84,SSE,154,3.5,3.5,36,0.00,CLR,,0.00,WeatherDisplay:10.37,2013-01-19 13:49:00,
2013-01-19 08:54:00,37.6,13.0,29.84,SE,124,3.5,3.5,36,0.00,CLR,,0.00,WeatherDisplay:10.37,2013-01-19 13:54:00,
2013-01-19 08:59:00,36.9,13.0,29.84,SSE,152,3.5,0.0,37,0.00,CLR,,0.00,WeatherDisplay:10.37,2013-01-19 13:59:00,
2013-01-19 09:04:00,37.4,12.8,29.84,SE,134,5.4,5.4,36,0.00,CLR,,0.00,WeatherDisplay:10.37,2013-01-19 14:04:00,
2013-01-19 09:09:00,37.2,13.3,29.84,ESE,112,5.8,5.8,37,0.00,CLR,,0.00,WeatherDisplay:10.37,2013-01-19 14:09:00,
2013-01-19 09:14:00,37.8,13.2,29.84,South,178,2.3,2.3,36,0.00,CLR,,0.00,WeatherDisplay:10.37,2013-01-19 14:14:00,
2013-01-19 09:19:00,43.5,17.6,29.84,South,178,2.3,2.3,35,0.00,CLR,,0.00,WeatherDisplay:10.37,2013-01-19 14:19:00,
2013-01-19 09:24:00,45.9,19.7,29.84,ESE,104,0.0,0.0,35,0.00,CLR,,0.00,WeatherDisplay:10.37,2013-01-19 14:24:00,
2013-01-19 09:29:00,47.3,20.3,29.84,South,187,3.5,3.5,34,0.00,CLR,,0.00,WeatherDisplay:10.37,2013-01-19 14:29:00,
2013-01-19 09:34:00,45.7,19.6,29.84,ESE,122,3.5,3.5,35,0.00,CLR,,0.00,WeatherDisplay:10.37,2013-01-19 14:34:00,
2013-01-19 09:39:00,43.0,17.2,29.84,ESE,111,3.6,3.6,35,0.00,CLR,,0.00,WeatherDisplay:10.37,2013-01-19 14:39:00,
2013-01-19 09:44:00,41.5,16.5,29.84,WNW,292,3.5,3.5,36,0.00,CLR,,0.00,WeatherDisplay:10.37,2013-01-19 14:44:00,
2013-01-19 09:49:00,41.0,16.0,29.87,South,189,2.3,0.0,36,0.00,CLR,,0.00,WeatherDisplay:10.37,2013-01-19 14:49:00,
2013-01-19 09:54:00,41.0,16.0,29.87,SW,221,3.5,0.0,36,0.00,CLR,,0.00,WeatherDisplay:10.37,2013-01-19 14:54:00,
2013-01-19 09:59:00,41.0,16.0,29.87,SE,142,5.8,5.8,36,0.00,CLR,,0.00,WeatherDisplay:10.37,2013-01-19 14:59:00,
2013-01-19 10:04:00,41.5,16.5,29.84,SE,126,3.5,3.5,36,0.00,CLR,,0.00,WeatherDisplay:10.37,2013-01-19 15:04:00,
2013-01-19 10:09:00,42.8,17.0,29.84,SE,126,3.5,3.5,35,0.00,CLR,,0.00,WeatherDisplay:10.37,2013-01-19 15:09:00,
2013-01-19 10:14:00,43.0,17.2,29.84,SSW,204,3.5,0.0,35,0.00,CLR,,0.00,WeatherDisplay:10.37,2013-01-19 15:14:00,
2013-01-19 10:19:00,43.0,17.2,29.84,SE,128,3.5,3.5,35,0.00,CLR,,0.00,WeatherDisplay:10.37,2013-01-19 15:19:00,
2013-01-19 10:24:00,43.0,17.2,29.84,East,91,2.3,0.0,35,0.00,CLR,,0.00,WeatherDisplay:10.37,2013-01-19 15:24:00,
2013-01-19 10:29:00,43.3,17.5,29.84,ESE,115,3.5,0.0,35,0.00,CLR,,0.00,WeatherDisplay:10.37,2013-01-19 15:29:00,
2013-01-19 10:34:00,43.5,17.6,29.84,ESE,116,5.8,0.0,35,0.00,CLR,,0.00,WeatherDisplay:10.37,2013-01-19 15:34:00,
2013-01-19 10:39:00,48.7,21.6,29.84,SE,142,5.8,5.8,34,0.00,CLR,,0.00,WeatherDisplay:10.37,2013-01-19 15:39:00,
2013-01-19 10:44:00,51.4,24.0,29.84,SE,137,3.5,3.5,34,0.00,CLR,,0.00,WeatherDisplay:10.37,2013-01-19 15:44:00,
2013-01-19 10:49:00,53.1,24.7,29.84,SW,219,8.1,8.1,33,0.00,CLR,,0.00,WeatherDisplay:10.37,2013-01-19 15:49:00,
2013-01-19 10:54:00,50.2,22.9,29.84,SSE,167,3.5,3.5,34,0.00,CLR,,0.00,WeatherDisplay:10.37,2013-01-19 15:54:00,
2013-01-19 10:59:00,49.6,22.4,29.84,SSW,206,6.3,6.3,34,0.00,CLR,,0.00,WeatherDisplay:10.37,2013-01-19 15:59:00,
2013-01-19 11:04:00,54.3,25.8,29.84,SW,226,8.1,8.1,33,0.00,CLR,,0.00,WeatherDisplay:10.37,2013-01-19 16:04:00,
2013-01-19 11:09:00,49.3,22.1,29.84,ESE,117,4.6,0.0,34,0.00,CLR,,0.00,WeatherDisplay:10.37,2013-01-19 16:09:00,
2013-01-19 11:14:00,49.6,22.4,29.84,NE,56,3.5,3.5,34,0.00,CLR,,0.00,WeatherDisplay:10.37,2013-01-19 16:14:00,
2013-01-19 11:19:00,51.8,23.6,29.84,NNE,28,3.5,3.5,33,0.00,CLR,,0.00,WeatherDisplay:10.37,2013-01-19 16:19:00,
2013-01-19 11:24:00,52.9,24.5,29.84,NNW,336,3.1,3.1,33,0.00,CLR,,0.00,WeatherDisplay:10.37,2013-01-19 16:24:00,
2013-01-19 11:29:00,55.4,26.0,29.81,SE,130,5.8,5.8,32,0.00,CLR,,0.00,WeatherDisplay:10.37,2013-01-19 16:29:00,
2013-01-19 11:34:00,54.5,26.0,29.81,SSE,152,3.5,3.5,33,0.00,CLR,,0.00,WeatherDisplay:10.37,2013-01-19 16:34:00,
2013-01-19 11:39:00,54.9,26.3,29.81,SE,137,4.0,0.0,33,0.00,CLR,,0.00,WeatherDisplay:10.37,2013-01-19 16:39:00,
2013-01-19 11:44:00,53.2,24.8,29.81,SE,127,5.8,5.8,33,0.00,CLR,,0.00,WeatherDisplay:10.37,2013-01-19 16:44:00,
2013-01-19 11:49:00,57.2,27.6,29.81,ESE,103,3.5,0.0,32,0.00,CLR,,0.00,WeatherDisplay:10.37,2013-01-19 16:49:00,
2013-01-19 11:54:00,58.5,28.7,29.81,ESE,117,3.5,3.5,32,0.00,CLR,,0.00,WeatherDisplay:10.37,2013-01-19 16:54:00,
2013-01-19 11:59:00,55.4,26.0,29.81,WSW,237,4.6,4.6,32,0.00,CLR,,0.00,WeatherDisplay:10.37,2013-01-19 16:59:00,
2013-01-19 12:04:00,49.8,22.5,29.81,ESE,117,5.8,5.8,34,0.00,CLR,,0.00,WeatherDisplay:10.37,2013-01-19 17:04:00,
2013-01-19 12:13:00,47.8,20.8,29.81,SE,131,5.8,5.8,34,0.00,CLR,,0.00,WeatherDisplay:10.37,2013-01-19 17:13:00,
2013-01-19 12:19:00,47.3,20.3,29.78,South,180,5.8,5.8,34,0.00,CLR,,0.00,WeatherDisplay:10.37,2013-01-19 17:19:00,
2013-01-19 12:24:00,47.3,20.3,29.78,SE,125,3.5,0.0,34,0.00,CLR,,0.00,WeatherDisplay:10.37,2013-01-19 17:24:00,
2013-01-19 12:30:00,47.5,20.5,29.75,SSE,151,3.5,3.5,34,0.00,CLR,,0.00,WeatherDisplay:10.37,2013-01-19 17:30:00,
2013-01-19 12:36:00,47.7,20.6,29.75,SW,224,3.5,3.5,34,0.00,CLR,,0.00,WeatherDisplay:10.37,2013-01-19 17:36:00,
2013-01-19 12:41:00,48.6,21.4,29.75,SW,220,5.8,5.8,34,0.00,CLR,,0.00,WeatherDisplay:10.37,2013-01-19 17:41:00,
2013-01-19 12:47:00,48.6,21.4,29.75,East,96,5.8,5.8,34,0.00,CLR,,0.00,WeatherDisplay:10.37,2013-01-19 17:47:00,
2013-01-19 12:52:00,48.4,21.3,29.75,ESE,116,5.4,5.4,34,0.00,CLR,,0.00,WeatherDisplay:10.37,2013-01-19 17:52:00,
2013-01-19 12:57:00,50.2,22.9,29.75,East,83,3.5,0.0,34,0.00,CLR,,0.00,WeatherDisplay:10.37,2013-01-19 17:57:00,
2013-01-19 13:03:00,58.1,28.4,29.75,SSE,160,4.0,4.0,32,0.00,CLR,,0.00,WeatherDisplay:10.37,2013-01-19 18:03:00,
2013-01-19 13:09:00,55.6,26.2,29.75,ESE,115,3.5,0.0,32,0.00,CLR,,0.00,WeatherDisplay:10.37,2013-01-19 18:09:00,
2013-01-19 13:14:00,50.9,23.5,29.75,NW,311,3.6,3.6,34,0.00,CLR,,0.00,WeatherDisplay:10.37,2013-01-19 18:14:00,
2013-01-19 13:20:00,51.1,23.7,29.75,ESE,118,3.5,3.5,34,0.00,CLR,,0.00,WeatherDisplay:10.37,2013-01-19 18:20:00,
2013-01-19 13:26:00,52.9,24.5,29.75,WSW,246,4.6,4.6,33,0.00,CLR,,0.00,WeatherDisplay:10.37,2013-01-19 18:26:00,
2013-01-19 13:32:00,53.4,25.0,29.73,SSW,204,3.5,0.0,33,0.00,CLR,,0.00,WeatherDisplay:10.37,2013-01-19 18:32:00,
2013-01-19 13:37:00,50.9,23.5,29.73,SW,223,4.6,4.6,34,0.00,CLR,,0.00,WeatherDisplay:10.37,2013-01-19 18:37:00,
2013-01-19 13:42:00,49.8,22.5,29.73,ENE,66,3.5,3.5,34,0.00,CLR,,0.00,WeatherDisplay:10.37,2013-01-19 18:42:00,
2013-01-19 13:47:00,49.8,22.5,29.69,ESE,106,5.4,5.4,34,0.00,CLR,,0.00,WeatherDisplay:10.37,2013-01-19 18:47:00,
2013-01-19 13:53:00,49.8,22.5,29.69,SE,141,3.5,3.5,34,0.00,CLR,,0.00,WeatherDisplay:10.37,2013-01-19 18:53:00,
2013-01-19 13:58:00,49.5,22.2,29.69,NE,54,3.5,3.5,34,0.00,CLR,,0.00,WeatherDisplay:10.37,2013-01-19 18:58:00,
2013-01-19 14:03:00,49.8,22.5,29.73,WSW,253,6.9,6.9,34,0.00,CLR,,0.00,WeatherDisplay:10.37,2013-01-19 19:03:00,
2013-01-19 14:08:00,49.8,22.5,29.73,SSW,192,3.5,3.5,34,0.00,CLR,,0.00,WeatherDisplay:10.37,2013-01-19 19:08:00,
2013-01-19 14:13:00,49.5,22.2,29.73,SE,132,3.5,3.5,34,0.00,CLR,,0.00,WeatherDisplay:10.37,2013-01-19 19:13:00,
2013-01-19 14:19:00,49.3,22.1,29.73,SSE,154,2.3,0.0,34,0.00,CLR,,0.00,WeatherDisplay:10.37,2013-01-19 19:19:00,
2013-01-19 14:24:00,49.6,22.4,29.73,SSE,154,3.5,3.5,34,0.00,CLR,,0.00,WeatherDisplay:10.37,2013-01-19 19:24:00,
2013-01-19 14:30:00,49.5,22.2,29.69,SE,140,3.5,0.0,34,0.00,CLR,,0.00,WeatherDisplay:10.37,2013-01-19 19:30:00,
2013-01-19 14:36:00,49.3,22.1,29.69,SSW,213,8.1,8.1,34,0.00,CLR,,0.00,WeatherDisplay:10.37,2013-01-19 19:36:00,
2013-01-19 14:41:00,49.3,22.1,29.69,SSW,207,4.6,4.6,34,0.00,CLR,,0.00,WeatherDisplay:10.37,2013-01-19 19:41:00,
2013-01-19 14:47:00,49.3,22.1,29.69,SE,139,5.8,5.8,34,0.00,CLR,,0.00,WeatherDisplay:10.37,2013-01-19 19:47:00,
2013-01-19 14:54:00,49.6,22.4,29.69,ESE,123,2.3,2.7,34,0.00,CLR,,0.00,WeatherDisplay:10.37,2013-01-19 19:54:00,
2013-01-19 14:59:00,49.3,22.1,29.69,ESE,122,9.2,9.2,34,0.00,CLR,,0.00,WeatherDisplay:10.37,2013-01-19 19:59:00,
2013-01-19 15:04:00,49.5,22.2,29.69,WSW,239,4.6,4.6,34,0.00,CLR,,0.00,WeatherDisplay:10.37,2013-01-19 20:04:00,
2013-01-19 15:09:00,49.5,22.2,29.69,SSE,147,3.5,3.5,34,0.00,CLR,,0.00,WeatherDisplay:10.37,2013-01-19 20:09:00,
2013-01-19 15:15:00,49.1,21.9,29.67,SW,219,3.5,3.5,34,0.00,CLR,,0.00,WeatherDisplay:10.37,2013-01-19 20:15:00,
2013-01-19 15:21:00,49.1,21.9,29.67,ESE,111,3.5,3.5,34,0.00,CLR,,0.00,WeatherDisplay:10.37,2013-01-19 20:21:00,
2013-01-19 15:26:00,48.6,21.4,29.67,SE,131,5.8,5.8,34,0.00,CLR,,0.00,WeatherDisplay:10.37,2013-01-19 20:26:00,
2013-01-19 15:31:00,48.6,21.4,29.67,SE,129,3.5,3.5,34,0.00,CLR,,0.00,WeatherDisplay:10.37,2013-01-19 20:31:00,
2013-01-19 15:36:00,48.7,21.6,29.67,SE,144,5.8,5.8,34,0.00,CLR,,0.00,WeatherDisplay:10.37,2013-01-19 20:36:00,
2013-01-19 15:42:00,48.6,21.4,29.67,SE,124,3.5,0.0,34,0.00,CLR,,0.00,WeatherDisplay:10.37,2013-01-19 20:42:00,
2013-01-19 15:47:00,48.4,21.3,29.67,SE,143,3.5,3.5,34,0.00,CLR,,0.00,WeatherDisplay:10.37,2013-01-19 20:47:00,
2013-01-19 15:52:00,48.0,20.9,29.67,SE,131,5.8,5.8,34,0.00,CLR,,0.00,WeatherDisplay:10.37,2013-01-19 20:52:00,
2013-01-19 15:58:00,48.7,21.6,29.67,SE,127,3.5,3.5,34,0.00,CLR,,0.00,WeatherDisplay:10.37,2013-01-19 20:58:00,
2013-01-19 16:03:00,48.6,21.4,29.67,SE,128,3.5,3.5,34,0.00,CLR,,0.00,WeatherDisplay:10.37,2013-01-19 21:03:00,
2013-01-19 16:08:00,48.0,20.9,29.67,East,100,3.5,3.5,34,0.00,CLR,,0.00,WeatherDisplay:10.37,2013-01-19 21:08:00,
2013-01-19 16:13:00,47.7,20.6,29.67,ESE,116,2.3,0.0,34,0.00,CLR,,0.00,WeatherDisplay:10.37,2013-01-19 21:13:00,
2013-01-19 16:18:00,47.1,20.2,29.67,SSE,153,2.3,0.0,34,0.00,CLR,,0.00,WeatherDisplay:10.37,2013-01-19 21:18:00,
2013-01-19 16:23:00,47.1,20.2,29.67,SSE,153,3.5,3.5,34,0.00,CLR,,0.00,WeatherDisplay:10.37,2013-01-19 21:23:00,
2013-01-19 16:29:00,46.8,19.8,29.64,SE,129,3.5,3.5,34,0.00,CLR,,0.00,WeatherDisplay:10.37,2013-01-19 21:29:00,
2013-01-19 16:35:00,46.6,19.7,29.64,ESE,117,2.7,0.0,34,0.00,CLR,,0.00,WeatherDisplay:10.37,2013-01-19 21:35:00,
2013-01-19 16:40:00,46.4,19.5,29.64,WSW,256,4.6,4.6,34,0.00,CLR,,0.00,WeatherDisplay:10.37,2013-01-19 21:40:00,
2013-01-19 16:45:00,46.2,20.0,29.64,SE,135,3.5,3.5,35,0.00,CLR,,0.00,WeatherDisplay:10.37,2013-01-19 21:45:00,
2013-01-19 16:50:00,46.2,20.0,29.64,SW,234,3.5,0.0,35,0.00,CLR,,0.00,WeatherDisplay:10.37,2013-01-19 21:50:00,
2013-01-19 16:56:00,46.2,20.0,29.64,East,94,4.0,4.0,35,0.00,CLR,,0.00,WeatherDisplay:10.37,2013-01-19 21:56:00,
2013-01-19 17:01:00,45.5,19.4,29.64,SE,144,3.1,0.0,35,0.00,CLR,,0.00,WeatherDisplay:10.37,2013-01-19 22:01:00,
2013-01-19 17:06:00,45.5,19.4,29.64,NE,53,0.0,0.0,35,0.00,CLR,,0.00,WeatherDisplay:10.37,2013-01-19 22:06:00,
2013-01-19 17:12:00,45.5,19.4,29.64,SE,129,0.0,0.0,35,0.00,CLR,,0.00,WeatherDisplay:10.37,2013-01-19 22:12:00,
2013-01-19 17:18:00,44.2,18.3,29.64,East,99,0.0,0.0,35,0.00,CLR,,0.00,WeatherDisplay:10.37,2013-01-19 22:18:00,
2013-01-19 17:23:00,43.5,17.6,29.64,SE,136,2.3,0.0,35,0.00,CLR,,0.00,WeatherDisplay:10.37,2013-01-19 22:23:00,
2013-01-19 17:28:00,43.3,17.5,29.64,ESE,120,2.2,0.0,35,0.00,CLR,,0.00,WeatherDisplay:10.37,2013-01-19 22:28:00,
2013-01-19 17:33:00,43.0,17.2,29.64,West,277,3.5,0.0,35,0.00,CLR,,0.00,WeatherDisplay:10.37,2013-01-19 22:33:00,
2013-01-19 17:38:00,42.8,17.0,29.64,West,277,0.0,0.0,35,0.00,CLR,,0.00,WeatherDisplay:10.37,2013-01-19 22:38:00,
2013-01-19 17:44:00,42.4,17.3,29.61,SW,236,0.0,0.0,36,0.00,CLR,,0.00,WeatherDisplay:10.37,2013-01-19 22:44:00,
2013-01-19 17:49:00,41.9,16.9,29.61,WSW,237,0.0,0.0,36,0.00,CLR,,0.00,WeatherDisplay:10.37,2013-01-19 22:49:00,
2013-01-19 17:54:00,41.7,16.7,29.61,NW,307,0.0,0.0,36,0.00,CLR,,0.00,WeatherDisplay:10.37,2013-01-19 22:54:00,
2013-01-19 17:59:00,41.7,16.7,29.61,South,183,0.0,0.0,36,0.00,CLR,,0.00,WeatherDisplay:10.37,2013-01-19 22:59:00,
2013-01-19 18:04:00,41.5,16.5,29.61,West,270,2.3,0.0,36,0.00,CLR,,0.00,WeatherDisplay:10.37,2013-01-19 23:04:00,
2013-01-19 18:09:00,41.2,16.2,29.61,South,176,0.0,0.0,36,0.00,CLR,,0.00,WeatherDisplay:10.37,2013-01-19 23:09:00,
2013-01-19 18:14:00,40.6,15.7,29.61,South,176,2.3,0.0,36,0.00,CLR,,0.00,WeatherDisplay:10.37,2013-01-19 23:14:00,
2013-01-19 18:19:00,40.5,15.6,29.61,ESE,116,2.3,0.0,36,0.00,CLR,,0.00,WeatherDisplay:10.37,2013-01-19 23:19:00,
2013-01-19 18:24:00,39.9,15.1,29.61,SSE,166,2.3,0.0,36,0.00,CLR,,0.00,WeatherDisplay:10.37,2013-01-19 23:24:00,
2013-01-19 18:30:00,39.9,15.1,29.61,ESE,116,3.5,0.0,36,0.00,CLR,,0.00,WeatherDisplay:10.37,2013-01-19 23:30:00,
2013-01-19 18:35:00,40.5,15.6,29.61,West,262,0.0,0.0,36,0.00,CLR,,0.00,WeatherDisplay:10.37,2013-01-19 23:35:00,
2013-01-19 18:40:00,39.9,15.1,29.61,WSW,243,2.3,0.0,36,0.00,CLR,,0.00,WeatherDisplay:10.37,2013-01-19 23:40:00,
2013-01-19 18:45:00,39.7,14.9,29.61,SE,143,2.3,0.0,36,0.00,CLR,,0.00,WeatherDisplay:10.37,2013-01-19 23:45:00,
2013-01-19 18:50:00,39.4,14.6,29.61,SW,220,0.0,0.0,36,0.00,CLR,,0.00,WeatherDisplay:10.37,2013-01-19 23:50:00,
2013-01-19 18:56:00,39.4,14.6,29.61,SW,227,0.0,0.0,36,0.00,CLR,,0.00,WeatherDisplay:10.37,2013-01-19 23:56:00,
2013-01-19 19:02:00,39.2,14.4,29.61,ESE,121,0.0,0.0,36,0.00,CLR,,0.00,WeatherDisplay:10.37,2013-01-20 00:02:00,
2013-01-19 19:07:00,39.7,14.9,29.61,SSE,165,3.5,0.0,36,0.00,CLR,,0.00,WeatherDisplay:10.37,2013-01-20 00:07:00,
2013-01-19 19:13:00,40.5,15.6,29.61,SE,133,5.8,0.0,36,0.00,CLR,,0.00,WeatherDisplay:10.37,2013-01-20 00:13:00,
2013-01-19 19:18:00,41.5,16.5,29.61,SE,141,3.5,3.5,36,0.00,CLR,,0.00,WeatherDisplay:10.37,2013-01-20 00:18:00,
2013-01-19 19:23:00,41.9,16.9,29.61,SE,125,3.5,0.0,36,0.00,CLR,,0.00,WeatherDisplay:10.37,2013-01-20 00:23:00,
2013-01-19 19:28:00,41.7,16.7,29.61,South,177,5.8,5.8,36,0.00,CLR,,0.00,WeatherDisplay:10.37,2013-01-20 00:28:00,
2013-01-19 19:33:00,41.2,16.2,29.61,SSE,167,5.8,5.8,36,0.00,CLR,,0.00,WeatherDisplay:10.37,2013-01-20 00:33:00,
2013-01-19 19:39:00,41.0,16.0,29.61,SW,224,2.3,3.1,36,0.00,CLR,,0.00,WeatherDisplay:10.37,2013-01-20 00:39:00,
2013-01-19 19:44:00,41.2,16.2,29.58,SW,220,0.0,0.0,36,0.00,CLR,,0.00,WeatherDisplay:10.37,2013-01-20 00:44:00,
2013-01-19 19:49:00,40.6,15.7,29.58,ESE,117,2.3,0.0,36,0.00,CLR,,0.00,WeatherDisplay:10.37,2013-01-20 00:49:00,
2013-01-19 19:54:00,41.0,16.0,29.58,SW,224,3.5,0.0,36,0.00,CLR,,0.00,WeatherDisplay:10.37,2013-01-20 00:54:00,
2013-01-19 20:00:00,41.2,16.2,29.58,SE,140,2.3,0.0,36,0.00,CLR,,0.00,WeatherDisplay:10.37,2013-01-20 01:00:00,
2013-01-19 20:05:00,41.7,16.7,29.58,WSW,244,3.5,3.5,36,0.00,CLR,,0.00,WeatherDisplay:10.37,2013-01-20 01:05:00,
2013-01-19 20:10:00,42.1,17.0,29.58,West,274,3.5,3.5,36,0.00,CLR,,0.00,WeatherDisplay:10.37,2013-01-20 01:10:00,
2013-01-19 20:15:00,42.3,17.2,29.58,ESE,102,2.7,0.0,36,0.00,CLR,,0.00,WeatherDisplay:10.37,2013-01-20 01:15:00,
2013-01-19 20:20:00,43.0,17.2,29.58,SE,124,3.5,3.5,35,0.00,CLR,,0.00,WeatherDisplay:10.37,2013-01-20 01:20:00,
2013-01-19 20:26:00,43.2,17.3,29.58,SSW,193,3.5,3.5,35,0.00,CLR,,0.00,WeatherDisplay:10.37,2013-01-20 01:26:00,
2013-01-19 20:31:00,43.2,17.3,29.55,SSW,192,3.6,0.0,35,0.00,CLR,,0.00,WeatherDisplay:10.37,2013-01-20 01:31:00,
2013-01-19 20:36:00,42.6,17.5,29.55,SE,130,3.5,0.0,36,0.00,CLR,,0.00,WeatherDisplay:10.37,2013-01-20 01:36:00,
2013-01-19 20:41:00,43.5,17.6,29.55,SE,129,2.3,0.0,35,0.00,CLR,,0.00,WeatherDisplay:10.37,2013-01-20 01:41:00,
2013-01-19 20:46:00,43.5,17.6,29.55,South,178,3.5,3.5,35,0.00,CLR,,0.00,WeatherDisplay:10.37,2013-01-20 01:46:00,
2013-01-19 20:52:00,43.0,17.2,29.55,SE,142,8.1,8.1,35,0.00,CLR,,0.00,WeatherDisplay:10.37,2013-01-20 01:52:00,
2013-01-19 20:58:00,43.7,17.8,29.55,ESE,108,5.8,5.8,35,0.00,CLR,,0.00,WeatherDisplay:10.37,2013-01-20 01:58:00,
2013-01-19 21:04:00,44.1,18.1,29.55,ESE,123,3.1,0.0,35,0.00,CLR,,0.00,WeatherDisplay:10.37,2013-01-20 02:04:00,
2013-01-19 21:09:00,43.5,17.6,29.55,West,268,3.5,3.5,35,0.00,CLR,,0.00,WeatherDisplay:10.37,2013-01-20 02:09:00,
2013-01-19 21:14:00,43.9,18.0,29.55,ESE,108,5.8,0.0,35,0.00,CLR,,0.00,WeatherDisplay:10.37,2013-01-20 02:14:00,
2013-01-19 21:19:00,43.5,17.6,29.55,South,188,3.5,0.0,35,0.00,CLR,,0.00,WeatherDisplay:10.37,2013-01-20 02:19:00,
2013-01-19 21:24:00,44.1,18.1,29.55,ESE,121,3.5,3.5,35,0.00,CLR,,0.00,WeatherDisplay:10.37,2013-01-20 02:24:00,
2013-01-19 21:29:00,43.9,18.0,29.55,SW,227,3.5,3.5,35,0.00,CLR,,0.00,WeatherDisplay:10.37,2013-01-20 02:29:00,
2013-01-19 21:34:00,43.9,18.0,29.55,South,175,2.3,2.3,35,0.00,CLR,,0.00,WeatherDisplay:10.37,2013-01-20 02:34:00,
2013-01-19 21:40:00,44.1,18.1,29.55,SE,145,2.3,0.0,35,0.00,CLR,,0.00,WeatherDisplay:10.37,2013-01-20 02:40:00,
2013-01-19 21:45:00,44.1,18.1,29.55,West,279,3.5,0.0,35,0.00,CLR,,0.00,WeatherDisplay:10.37,2013-01-20 02:45:00,
2013-01-19 21:50:00,44.6,18.6,29.55,SSW,208,4.0,4.0,35,0.00,CLR,,0.00,WeatherDisplay:10.37,2013-01-20 02:50:00,
2013-01-19 21:55:00,43.9,18.0,29.55,SE,139,4.6,4.6,35,0.00,CLR,,0.00,WeatherDisplay:10.37,2013-01-20 02:55:00,
2013-01-19 22:00:00,44.4,18.4,29.52,SSW,205,3.5,3.5,35,0.00,CLR,,0.00,WeatherDisplay:10.37,2013-01-20 03:00:00,
2013-01-19 22:05:00,44.6,18.6,29.52,SSE,150,5.8,5.8,35,0.00,CLR,,0.00,WeatherDisplay:10.37,2013-01-20 03:05:00,
2013-01-19 22:10:00,44.4,18.4,29.52,SE,134,3.5,3.5,35,0.00,CLR,,0.00,WeatherDisplay:10.37,2013-01-20 03:10:00,
2013-01-19 22:15:00,44.2,18.3,29.55,SSW,201,2.3,0.0,35,0.00,CLR,,0.00,WeatherDisplay:10.37,2013-01-20 03:15:00,
2013-01-19 22:20:00,44.6,18.6,29.55,SW,225,8.1,8.1,35,0.00,CLR,,0.00,WeatherDisplay:10.37,2013-01-20 03:20:00,
2013-01-19 22:26:00,44.4,18.4,29.55,SE,135,5.8,5.8,35,0.00,CLR,,0.00,WeatherDisplay:10.37,2013-01-20 03:26:00,
2013-01-19 22:32:00,43.3,17.5,29.55,West,274,5.8,5.8,35,0.00,CLR,,0.00,WeatherDisplay:10.37,2013-01-20 03:32:00,
2013-01-19 22:37:00,44.2,18.3,29.55,SSW,200,8.1,8.1,35,0.00,CLR,,0.00,WeatherDisplay:10.37,2013-01-20 03:37:00,
2013-01-19 22:42:00,44.4,18.4,29.55,ESE,109,3.5,3.5,35,0.00,CLR,,0.00,WeatherDisplay:10.37,2013-01-20 03:42:00,
2013-01-19 22:48:00,43.7,17.8,29.52,SSW,212,5.8,5.8,35,0.00,CLR,,0.00,WeatherDisplay:10.37,2013-01-20 03:48:00,
2013-01-19 22:53:00,43.7,17.8,29.52,SSE,147,3.5,3.5,35,0.00,CLR,,0.00,WeatherDisplay:10.37,2013-01-20 03:53:00,
2013-01-19 22:58:00,43.3,17.5,29.52,ESE,105,3.5,3.5,35,0.00,CLR,,0.00,WeatherDisplay:10.37,2013-01-20 03:58:00,
2013-01-19 23:03:00,43.3,17.5,29.52,East,86,5.8,5.8,35,0.00,CLR,,0.00,WeatherDisplay:10.37,2013-01-20 04:03:00,
2013-01-19 23:08:00,43.3,17.5,29.52,ESE,111,3.5,3.5,35,0.00,CLR,,0.00,WeatherDisplay:10.37,2013-01-20 04:08:00,
2013-01-19 23:14:00,42.8,17.0,29.52,ESE,116,3.5,3.5,35,0.00,CLR,,0.00,WeatherDisplay:10.37,2013-01-20 04:14:00,
2013-01-19 23:19:00,42.8,17.0,29.52,West,259,3.5,3.5,35,0.00,CLR,,0.00,WeatherDisplay:10.37,2013-01-20 04:19:00,
2013-01-19 23:24:00,42.6,17.5,29.52,SW,216,8.0,0.0,36,0.00,CLR,,0.00,WeatherDisplay:10.37,2013-01-20 04:24:00,
2013-01-19 23:29:00,42.6,17.5,29.52,WSW,246,4.6,0.0,36,0.00,CLR,,0.00,WeatherDisplay:10.37,2013-01-20 04:29:00,
2013-01-19 23:34:00,42.4,17.3,29.52,WNW,296,3.5,0.0,36,0.00,CLR,,0.00,WeatherDisplay:10.37,2013-01-20 04:34:00,
2013-01-19 23:40:00,42.4,17.3,29.52,ESE,117,4.6,4.6,36,0.00,CLR,,0.00,WeatherDisplay:10.37,2013-01-20 04:40:00,
2013-01-19 23:44:00,42.6,17.5,29.49,SW,215,3.5,3.5,36,0.00,CLR,,0.00,WeatherDisplay:10.37,2013-01-20 04:44:00,
2013-01-19 23:50:00,42.1,17.0,29.49,ESE,117,3.5,3.5,36,0.00,CLR,,0.00,WeatherDisplay:10.37,2013-01-20 04:50:00,
2013-01-19 23:54:00,42.3,17.2,29.49,NE,37,2.3,3.1,36,0.00,CLR,,0.00,WeatherDisplay:10.37,2013-01-20 04:54:00,